CheckWX is a tool to help pilots better visualize weather data.  It is not intended as a substitute for an official pre-flight weather briefing.

05:23:01 UTC

KOKC TAF
Will Rogers World Airport
Oklahoma City, Oklahoma, USA
KOKC 030520Z 0306/0406 16008KT P6SM FEW060 SCT250

Jul-3@
06:00 UTC

Jul-3 @ 06:00 UTC

Jul-4@
06:00 UTC

Jul-4 @ 06:00 UTC

TAF KOKC 030520Z 0306/0406 16008KT P6SM FEW060 SCT250
Wind
  • 160° at 8 KTS
Cloud Levels
  • Few at 6,000' AGL
  • Scattered at 25,000' AGL